Time;durP1;ratioP1;P1;durP2;ratioP2;P2;SDS_P1;SDS_P2;PMS_P1;PMS_P2;Temp;Humidity;BMP_temperature;BMP_pressure;BME280_temperature;BME280_humidity;BME280_pressure;Samples;Min_cycle;Max_cycle;Signal;HPM_P1;HPM_P2
2023/06/16 00:01:31;;;;;;;1999.90;999.90;;;18.20;99.90;;;;;;4965314;28;20027;-77
2023/06/16 00:03:58;;;;;;;1999.90;999.90;;;18.20;99.90;;;;;;4955759;29;20063;-70
2023/06/16 00:06:27;;;;;;;1999.90;999.90;;;18.10;99.90;;;;;;4955231;29;20452;-70
2023/06/16 00:08:54;;;;;;;1999.90;999.90;;;18.10;99.90;;;;;;4938137;29;20030;-70
2023/06/16 00:11:20;;;;;;;1999.90;999.90;;;18.10;99.90;;;;;;4955013;29;20031;-70
2023/06/16 00:13:48;;;;;;;1999.90;999.90;;;18.20;99.90;;;;;;4970865;28;20046;-70
2023/06/16 00:16:19;;;;;;;1999.90;999.90;;;18.20;99.90;;;;;;4957385;28;20082;-70
2023/06/16 00:18:45;;;;;;;1999.90;999.90;;;18.20;99.90;;;;;;4974019;28;20027;-78
2023/06/16 00:21:14;;;;;;;1999.90;999.90;;;18.30;99.90;;;;;;4959179;28;20059;-70
2023/06/16 00:23:40;;;;;;;1999.90;999.90;;;18.30;99.90;;;;;;4955464;29;20035;-70
2023/06/16 00:26:06;;;;;;;1999.90;999.90;;;18.40;99.90;;;;;;4954752;29;20023;-70
2023/06/16 00:28:32;;;;;;;1999.90;999.90;;;18.40;99.90;;;;;;4955283;29;20038;-77
2023/06/16 00:30:59;;;;;;;1999.90;999.90;;;18.50;99.90;;;;;;4956204;28;20398;-78
2023/06/16 00:33:25;;;;;;;1999.90;999.90;;;18.40;99.90;;;;;;4958459;29;20015;-70
2023/06/16 00:35:50;;;;;;;1999.90;999.90;;;18.50;99.90;;;;;;4958762;29;20027;-70
2023/06/16 00:38:16;;;;;;;1999.90;999.90;;;18.50;99.90;;;;;;4958602;29;20021;-77
2023/06/16 00:40:41;;;;;;;1999.90;999.90;;;18.50;99.90;;;;;;4958532;29;20031;-77
2023/06/16 00:43:07;;;;;;;1999.90;999.90;;;18.50;99.90;;;;;;4958405;29;20024;-77
2023/06/16 00:45:33;;;;;;;1999.90;999.90;;;18.50;99.90;;;;;;4958248;29;20058;-70
2023/06/16 00:48:00;;;;;;;1999.90;999.90;;;18.40;99.90;;;;;;4958097;29;20057;-77
2023/06/16 00:50:26;;;;;;;1999.90;999.90;;;18.50;99.90;;;;;;4957623;29;20042;-70
2023/06/16 00:52:52;;;;;;;1999.90;999.90;;;18.40;99.90;;;;;;4958432;29;20028;-77
2023/06/16 00:55:21;;;;;;;1999.90;999.90;;;18.30;99.90;;;;;;4958274;28;20054;-77
2023/06/16 00:57:50;;;;;;;1999.90;999.90;;;18.30;99.90;;;;;;4958192;29;20023;-77
2023/06/16 01:00:17;;;;;;;1999.90;999.90;;;18.30;99.90;;;;;;4958083;29;20035;-70
2023/06/16 01:02:46;;;;;;;1999.90;999.90;;;18.30;99.90;;;;;;4957449;29;20069;-70
2023/06/16 01:05:17;;;;;;;1999.90;999.90;;;18.20;99.90;;;;;;4957748;29;20024;-70
2023/06/16 01:08:00;;;;;;;1999.90;999.90;;;18.10;99.90;;;;;;4957788;29;20116;-77
2023/06/16 01:10:43;;;;;;;1999.90;999.90;;;18.00;99.90;;;;;;4940603;29;20051;-70
2023/06/16 01:13:23;;;;;;;1999.90;999.90;;;18.00;99.90;;;;;;4968183;28;20034;-69
2023/06/16 01:15:50;;;;;;;1999.90;999.90;;;18.00;99.90;;;;;;4976965;28;20477;-77
2023/06/16 01:18:22;;;;;;;1999.90;999.90;;;17.90;99.90;;;;;;4975720;28;20026;-70
2023/06/16 01:21:12;;;;;;;1999.90;999.90;;;17.90;99.90;;;;;;4964526;28;20031;-77
2023/06/16 01:24:08;;;;;;;1999.90;999.90;;;17.80;99.90;;;;;;4957909;29;20051;-70
2023/06/16 01:26:37;;;;;;;1999.90;999.90;;;17.80;99.90;;;;;;4957182;29;20041;-70
2023/06/16 01:29:08;;;;;;;1999.90;999.90;;;17.70;99.90;;;;;;4957448;29;20402;-70
2023/06/16 01:31:35;;;;;;;1999.90;999.90;;;17.80;99.90;;;;;;4957395;29;20135;-69
2023/06/16 01:34:02;;;;;;;1999.90;999.90;;;17.80;99.90;;;;;;4957768;29;20019;-77
2023/06/16 01:36:31;;;;;;;1999.90;999.90;;;17.70;99.90;;;;;;4957347;29;20031;-70
2023/06/16 01:39:00;;;;;;;1999.90;999.90;;;17.80;99.90;;;;;;4957095;29;20019;-77
2023/06/16 01:41:27;;;;;;;1999.90;999.90;;;17.90;99.90;;;;;;4957024;28;20027;-70
2023/06/16 01:43:53;;;;;;;1999.90;999.90;;;17.90;99.90;;;;;;4956017;29;20090;-70
2023/06/16 01:46:19;;;;;;;1999.90;999.90;;;17.90;99.90;;;;;;4956853;29;20486;-77
2023/06/16 01:48:46;;;;;;;1999.90;999.90;;;17.90;99.90;;;;;;4956929;29;20055;-77
2023/06/16 01:51:15;;;;;;;1999.90;999.90;;;17.90;99.90;;;;;;4957205;29;20457;-77
2023/06/16 01:53:41;;;;;;;1999.90;999.90;;;17.90;99.90;;;;;;4956757;29;20067;-70
2023/06/16 01:56:10;;;;;;;1999.90;999.90;;;17.90;99.90;;;;;;4956768;29;20498;-75
2023/06/16 01:58:35;;;;;;;1999.90;999.90;;;18.00;99.90;;;;;;4939509;29;20034;-77
2023/06/16 02:01:23;;;;;;;1999.90;999.90;;;18.00;99.90;;;;;;4956659;29;20027;-77
2023/06/16 02:04:19;;;;;;;1999.90;999.90;;;18.00;99.90;;;;;;4956247;29;20122;-70
2023/06/16 02:06:56;;;;;;;1999.90;999.90;;;17.90;99.90;;;;;;4956721;28;20126;-70
2023/06/16 02:09:22;;;;;;;1999.90;999.90;;;18.00;99.90;;;;;;4956178;29;20047;-70
2023/06/16 02:11:51;;;;;;;1999.90;999.90;;;17.90;99.90;;;;;;4955962;29;20031;-77
2023/06/16 02:14:18;;;;;;;1999.90;999.90;;;18.10;99.90;;;;;;4956543;29;20031;-77
2023/06/16 02:16:44;;;;;;;1999.90;999.90;;;18.10;99.90;;;;;;4956667;29;20102;-70
2023/06/16 02:19:11;;;;;;;1999.90;999.90;;;18.10;99.90;;;;;;4955546;29;20038;-77
2023/06/16 02:21:38;;;;;;;1999.90;999.90;;;18.00;99.90;;;;;;4956106;29;20541;-70
2023/06/16 02:24:04;;;;;;;1999.90;999.90;;;18.00;99.90;;;;;;4956275;28;20042;-69
2023/06/16 02:26:31;;;;;;;1999.90;999.90;;;18.00;99.90;;;;;;4956286;29;20031;-77
2023/06/16 02:28:57;;;;;;;1999.90;999.90;;;18.00;99.90;;;;;;4956398;28;20501;-77
2023/06/16 02:31:23;;;;;;;1999.90;999.90;;;18.00;99.90;;;;;;4956279;29;20031;-70
2023/06/16 02:33:51;;;;;;;1999.90;999.90;;;17.90;99.90;;;;;;4956133;29;20098;-70
2023/06/16 02:36:18;;;;;;;1999.90;999.90;;;17.90;99.90;;;;;;4955626;29;20106;-69
2023/06/16 02:38:45;;;;;;;1999.90;999.90;;;17.90;99.90;;;;;;4956333;29;20050;-70
2023/06/16 02:41:11;;;;;;;1999.90;999.90;;;17.80;99.90;;;;;;4955824;29;20023;-70
2023/06/16 02:43:36;;;;;;;1999.90;999.90;;;17.80;99.90;;;;;;4955799;29;20038;-70
2023/06/16 02:46:02;;;;;;;1999.90;999.90;;;17.80;99.90;;;;;;4955474;29;20035;-69
2023/06/16 02:48:27;;;;;;;1999.90;999.90;;;17.80;99.90;;;;;;4955798;29;20048;-70
2023/06/16 02:50:53;;;;;;;1999.90;999.90;;;17.80;99.90;;;;;;4955731;29;20483;-77
2023/06/16 02:53:19;;;;;;;1999.90;999.90;;;17.80;99.90;;;;;;4955511;28;20410;-70
2023/06/16 02:55:48;;;;;;;1999.90;999.90;;;17.80;99.90;;;;;;4955956;29;20019;-76
2023/06/16 02:58:14;;;;;;;1999.90;999.90;;;17.80;99.90;;;;;;4955373;28;20027;-77
2023/06/16 03:00:39;;;;;;;1999.90;999.90;;;17.80;99.90;;;;;;4955727;29;20066;-70
2023/06/16 03:03:07;;;;;;;1999.90;999.90;;;17.70;99.90;;;;;;4955504;29;20031;-77
2023/06/16 03:05:33;;;;;;;1999.90;999.90;;;17.70;99.90;;;;;;4955763;29;20602;-77
2023/06/16 03:07:58;;;;;;;1999.90;999.90;;;17.70;99.90;;;;;;4955493;29;20138;-77
2023/06/16 03:10:24;;;;;;;1999.90;999.90;;;17.70;99.90;;;;;;4955268;29;20031;-69
2023/06/16 03:12:50;;;;;;;1999.90;999.90;;;17.70;99.90;;;;;;4963841;28;20026;-69
2023/06/16 03:15:15;;;;;;;1999.90;999.90;;;17.70;99.90;;;;;;4975279;28;20033;-69
2023/06/16 03:17:42;;;;;;;1999.90;999.90;;;17.70;99.90;;;;;;4974501;28;20080;-76
2023/06/16 03:20:08;;;;;;;1999.90;999.90;;;17.70;99.90;;;;;;4966582;28;20020;-70
2023/06/16 03:22:34;;;;;;;1999.90;999.90;;;17.60;99.90;;;;;;4955227;29;20070;-70
2023/06/16 03:25:02;;;;;;;1999.90;999.90;;;17.60;99.90;;;;;;4955594;29;20474;-69
2023/06/16 03:27:28;;;;;;;1999.90;999.90;;;17.60;99.90;;;;;;4955675;29;20403;-70
2023/06/16 03:29:54;;;;;;;1999.90;999.90;;;17.50;99.90;;;;;;4955133;29;20027;-77
2023/06/16 03:32:19;;;;;;;1999.90;999.90;;;17.50;99.90;;;;;;4957091;28;20042;-77
2023/06/16 03:34:46;;;;;;;1999.90;999.90;;;17.40;99.90;;;;;;4974579;28;20051;-69
2023/06/16 03:37:12;;;;;;;1999.90;999.90;;;17.30;99.90;;;;;;4974619;28;20082;-77
2023/06/16 03:39:37;;;;;;;1999.90;999.90;;;17.30;99.90;;;;;;4974420;28;20022;-69
2023/06/16 03:42:03;;;;;;;1999.90;999.90;;;17.30;99.90;;;;;;4972431;28;20105;-77
2023/06/16 03:44:29;;;;;;;1999.90;999.90;;;17.20;99.90;;;;;;4954741;29;20024;-77
2023/06/16 03:46:55;;;;;;;1999.90;999.90;;;17.30;99.90;;;;;;4955266;29;20027;-69
2023/06/16 03:49:20;;;;;;;1999.90;999.90;;;17.30;99.90;;;;;;4954917;29;20130;-69
2023/06/16 03:51:46;;;;;;;1999.90;999.90;;;17.30;99.90;;;;;;4937939;29;20495;-70
2023/06/16 03:54:12;;;;;;;1999.90;999.90;;;17.30;99.90;;;;;;4955198;29;20015;-77
2023/06/16 03:56:38;;;;;;;1999.90;999.90;;;17.40;99.90;;;;;;4954812;28;20375;-76
2023/06/16 03:59:04;;;;;;;1999.90;999.90;;;17.40;99.90;;;;;;4954882;29;20098;-69
2023/06/16 04:01:31;;;;;;;1999.90;999.90;;;17.50;99.90;;;;;;4954544;29;20439;-70
2023/06/16 04:03:57;;;;;;;1999.90;999.90;;;17.60;99.90;;;;;;4954910;29;20020;-70
2023/06/16 04:06:24;;;;;;;1999.90;999.90;;;17.60;99.90;;;;;;4956007;28;20383;-76
2023/06/16 04:08:51;;;;;;;1999.90;999.90;;;17.70;99.90;;;;;;4958762;29;20029;-70
2023/06/16 04:11:17;;;;;;;1999.90;999.90;;;17.70;99.90;;;;;;4958804;29;20080;-75
2023/06/16 04:13:43;;;;;;;1999.90;999.90;;;17.70;99.90;;;;;;4973551;28;20420;-70
2023/06/16 04:16:08;;;;;;;1999.90;999.90;;;17.80;99.90;;;;;;4978046;28;20437;-70
2023/06/16 04:18:35;;;;;;;1999.90;999.90;;;17.80;99.90;;;;;;4977961;28;20023;-69
2023/06/16 04:21:00;;;;;;;1999.90;999.90;;;17.80;99.90;;;;;;4962907;28;20027;-76
2023/06/16 04:23:26;;;;;;;1999.90;999.90;;;17.90;99.90;;;;;;4941388;29;20029;-77
2023/06/16 04:25:52;;;;;;;1999.90;999.90;;;17.90;99.90;;;;;;4958422;29;20061;-70
2023/06/16 04:28:18;;;;;;;1999.90;999.90;;;17.90;99.90;;;;;;4958245;29;20055;-70
2023/06/16 04:30:44;;;;;;;1999.90;999.90;;;17.90;99.90;;;;;;4958433;29;20509;-69
2023/06/16 04:33:10;;;;;;;1999.90;999.90;;;17.90;99.90;;;;;;4958436;29;20038;-69
2023/06/16 04:35:36;;;;;;;1999.90;999.90;;;18.00;99.90;;;;;;4957810;29;20028;-75
2023/06/16 04:38:02;;;;;;;1999.90;999.90;;;18.00;99.90;;;;;;4956901;28;20058;-77
2023/06/16 04:40:29;;;;;;;1999.90;999.90;;;18.10;99.90;;;;;;4957728;28;20023;-70
2023/06/16 04:42:55;;;;;;;1999.90;999.90;;;18.10;99.90;;;;;;4958015;28;20393;-70
2023/06/16 04:45:21;;;;;;;1999.90;999.90;;;18.20;99.90;;;;;;4958677;28;20106;-77
2023/06/16 04:47:47;;;;;;;1999.90;999.90;;;18.10;99.90;;;;;;4959300;28;20185;-70
2023/06/16 04:50:16;;;;;;;1999.90;999.90;;;18.10;99.90;;;;;;4977179;28;20035;-77
2023/06/16 04:52:42;;;;;;;1999.90;999.90;;;18.10;99.90;;;;;;4976873;28;20031;-70
2023/06/16 04:55:08;;;;;;;1999.90;999.90;;;18.20;99.90;;;;;;4958261;29;20410;-77
2023/06/16 04:57:35;;;;;;;1999.90;999.90;;;18.30;99.90;;;;;;4957889;28;20106;-70
2023/06/16 05:00:06;;;;;;;1999.90;999.90;;;18.30;99.90;;;;;;4958287;28;20023;-77
2023/06/16 05:02:32;;;;;;;1999.90;999.90;;;18.30;99.90;;;;;;4957348;29;20034;-70
2023/06/16 05:04:58;;;;;;;1999.90;999.90;;;18.30;99.90;;;;;;4957842;28;20045;-77
2023/06/16 05:07:23;;;;;;;1999.90;999.90;;;18.40;99.90;;;;;;4957972;29;20031;-76
2023/06/16 05:09:49;;;;;;;1999.90;999.90;;;18.40;99.90;;;;;;4957322;28;20114;-70
2023/06/16 05:12:14;;;;;;;1999.90;999.90;;;18.40;99.90;;;;;;4960918;28;20026;-70
2023/06/16 05:14:40;;;;;;;1999.90;999.90;;;18.40;99.90;;;;;;4962127;28;20058;-70
2023/06/16 05:17:06;;;;;;;1999.90;999.90;;;18.50;99.90;;;;;;4957061;28;20050;-77
2023/06/16 05:19:34;;;;;;;1999.90;999.90;;;18.50;99.90;;;;;;4957372;28;20070;-69
2023/06/16 05:22:01;;;;;;;1999.90;999.90;;;18.50;99.90;;;;;;4955937;28;20027;-69
2023/06/16 05:24:27;;;;;;;1999.90;999.90;;;18.50;99.90;;;;;;4969353;28;20711;-69
2023/06/16 05:26:52;;;;;;;1999.90;999.90;;;18.60;99.90;;;;;;4976699;28;20038;-69
2023/06/16 05:29:18;;;;;;;1999.90;999.90;;;18.70;99.90;;;;;;4976672;28;20034;-77
2023/06/16 05:31:43;;;;;;;1999.90;999.90;;;18.70;99.90;;;;;;4962702;28;20110;-69
2023/06/16 05:34:09;;;;;;;1999.90;999.90;;;18.60;99.90;;;;;;4956764;29;20113;-70
2023/06/16 05:36:35;;;;;;;1999.90;999.90;;;18.70;99.90;;;;;;4958146;28;20053;-70
2023/06/16 05:39:02;;;;;;;1999.90;999.90;;;18.70;99.90;;;;;;4963730;28;20015;-77
2023/06/16 05:41:28;;;;;;;1999.90;999.90;;;18.70;99.90;;;;;;4959106;28;20027;-76
2023/06/16 05:43:57;;;;;;;1999.90;999.90;;;18.70;99.90;;;;;;4956565;28;20765;-77
2023/06/16 05:46:23;;;;;;;1999.90;999.90;;;18.70;99.90;;;;;;4962785;28;20441;-76
2023/06/16 05:48:49;;;;;;;1999.90;999.90;;;18.80;99.90;;;;;;4975905;28;20138;-77
2023/06/16 05:51:15;;;;;;;1999.90;999.90;;;18.90;99.90;;;;;;4974543;28;20174;-77
2023/06/16 05:53:41;;;;;;;1999.90;999.90;;;18.80;99.90;;;;;;4964768;28;20023;-70
2023/06/16 05:56:07;;;;;;;1999.90;999.90;;;18.80;99.90;;;;;;4972069;28;20078;-76
2023/06/16 05:58:36;;;;;;;1999.90;999.90;;;18.90;99.90;;;;;;4960317;28;20027;-70
2023/06/16 06:01:06;;;;;;;1999.90;999.90;;;18.90;99.90;;;;;;4956287;28;20027;-77
2023/06/16 06:03:32;;;;;;;1999.90;999.90;;;18.90;99.90;;;;;;4956595;28;20035;-76
2023/06/16 06:05:57;;;;;;;1999.90;999.90;;;18.90;99.90;;;;;;4956118;28;20667;-76
2023/06/16 06:08:27;;;;;;;1999.90;999.90;;;18.90;99.90;;;;;;4955709;28;20079;-70
2023/06/16 06:10:53;;;;;;;1999.90;999.90;;;18.80;99.90;;;;;;4954571;28;20667;-70
2023/06/16 06:13:19;;;;;;;1999.90;999.90;;;18.80;99.90;;;;;;4974927;28;20054;-70
2023/06/16 06:15:44;;;;;;;1999.90;999.90;;;18.80;99.90;;;;;;4960299;28;20031;-70
2023/06/16 06:18:10;;;;;;;1999.90;999.90;;;18.80;99.90;;;;;;4958062;28;20089;-70
2023/06/16 06:20:39;;;;;;;1999.90;999.90;;;19.00;99.90;;;;;;4956139;28;20058;-75
2023/06/16 06:23:05;;;;;;;1999.90;999.90;;;19.00;99.90;;;;;;4960136;28;20401;-69
2023/06/16 06:25:31;;;;;;;1999.90;999.90;;;19.00;99.90;;;;;;4955191;28;20048;-69
2023/06/16 06:27:56;;;;;;;1999.90;999.90;;;19.10;99.90;;;;;;4951164;28;20038;-69
2023/06/16 06:30:23;;;;;;;1999.90;999.90;;;19.20;99.90;;;;;;4949452;28;20429;-69
2023/06/16 06:32:48;;;;;;;1999.90;999.90;;;19.30;99.90;;;;;;4955662;28;20935;-75
2023/06/16 06:35:14;;;;;;;1999.90;999.90;;;19.40;99.90;;;;;;4944842;28;20039;-74
2023/06/16 06:37:40;;;;;;;1999.90;999.90;;;19.40;99.90;;;;;;4962639;28;20035;-69
2023/06/16 06:40:06;;;;;;;1999.90;999.90;;;19.50;99.90;;;;;;4961199;28;20031;-69
2023/06/16 06:42:32;;;;;;;1999.90;999.90;;;19.50;99.90;;;;;;4952600;28;20055;-69
2023/06/16 06:44:57;;;;;;;1999.90;999.90;;;19.70;99.90;;;;;;4952924;28;20063;-75
2023/06/16 06:47:23;;;;;;;1999.90;999.90;;;19.90;99.90;;;;;;4953444;28;20414;-75
2023/06/16 06:49:49;;;;;;;1999.90;999.90;;;20.10;99.90;;;;;;4959197;28;20133;-69
2023/06/16 06:52:15;;;;;;;1999.90;999.90;;;20.30;99.90;;;;;;4967373;28;20511;-68
2023/06/16 06:54:41;;;;;;;1999.90;999.90;;;20.10;99.90;;;;;;4965682;28;20054;-69
2023/06/16 06:57:06;;;;;;;1999.90;999.90;;;19.90;99.90;;;;;;4961858;28;20019;-69
2023/06/16 06:59:33;;;;;;;1999.90;999.90;;;19.70;99.90;;;;;;4954480;28;20138;-74
2023/06/16 07:01:58;;;;;;;1999.90;999.90;;;19.60;99.90;;;;;;4933683;28;20027;-69
2023/06/16 07:04:25;;;;;;;1999.90;999.90;;;19.60;99.90;;;;;;4955718;28;20082;-69
2023/06/16 07:06:51;;;;;;;1999.90;999.90;;;19.80;99.90;;;;;;4954200;28;20560;-69
2023/06/16 07:09:17;;;;;;;1999.90;999.90;;;19.80;99.90;;;;;;4949236;28;20545;-74
2023/06/16 07:11:43;;;;;;;1999.90;999.90;;;19.90;99.90;;;;;;4949420;28;20034;-69
2023/06/16 07:14:08;;;;;;;1999.90;999.90;;;20.10;99.90;;;;;;4951807;28;20113;-69
2023/06/16 07:16:34;;;;;;;1999.90;999.90;;;20.30;99.90;;;;;;4955038;28;20440;-69
2023/06/16 07:19:01;;;;;;;1999.90;999.90;;;20.40;99.90;;;;;;4952085;28;20069;-75
2023/06/16 07:21:30;;;;;;;1999.90;999.90;;;20.70;99.90;;;;;;4951844;28;20023;-69
2023/06/16 07:23:55;;;;;;;1999.90;999.90;;;21.10;99.90;;;;;;4950828;28;20087;-76
2023/06/16 07:26:21;;;;;;;1999.90;999.90;;;21.10;99.90;;;;;;4954257;28;20023;-74
2023/06/16 07:28:46;;;;;;;1999.90;999.90;;;20.50;99.90;;;;;;4950555;28;20406;-74
2023/06/16 07:31:12;;;;;;;1999.90;999.90;;;20.30;99.90;;;;;;4951187;28;20027;-69
2023/06/16 07:33:37;;;;;;;1999.90;999.90;;;20.10;99.90;;;;;;4950901;28;20066;-71
2023/06/16 07:36:03;;;;;;;1999.90;999.90;;;20.20;99.90;;;;;;4951346;28;20023;-69
2023/06/16 07:38:29;;;;;;;1999.90;999.90;;;20.30;99.90;;;;;;4951227;28;20039;-75
2023/06/16 07:40:55;;;;;;;1999.90;999.90;;;20.40;99.90;;;;;;4951321;28;20110;-69
2023/06/16 07:43:24;;;;;;;1999.90;999.90;;;20.30;99.90;;;;;;4952036;28;20114;-69
2023/06/16 07:45:51;;;;;;;1999.90;999.90;;;20.50;99.90;;;;;;4951616;28;20035;-69
2023/06/16 07:48:16;;;;;;;1999.90;999.90;;;20.30;99.90;;;;;;4950251;28;20047;-69
2023/06/16 07:50:42;;;;;;;1999.90;999.90;;;20.10;99.90;;;;;;4950453;28;20086;-71
2023/06/16 07:53:08;;;;;;;1999.90;999.90;;;20.10;99.90;;;;;;4950566;28;20410;-75
2023/06/16 07:55:33;;;;;;;1999.90;999.90;;;20.20;99.90;;;;;;4950039;28;20023;-69
2023/06/16 07:57:59;;;;;;;1999.90;999.90;;;20.30;99.90;;;;;;4949698;28;20035;-69
2023/06/16 08:00:25;;;;;;;1999.90;999.90;;;20.50;99.90;;;;;;4933054;28;20034;-69
2023/06/16 08:02:51;;;;;;;1999.90;999.90;;;21.00;99.90;;;;;;4950079;28;20131;-76
2023/06/16 08:05:17;;;;;;;1999.90;999.90;;;21.30;99.90;;;;;;4936260;28;20090;-69
2023/06/16 08:07:43;;;;;;;1999.90;999.90;;;21.00;99.90;;;;;;4951027;28;20043;-69
2023/06/16 08:10:10;;;;;;;1999.90;999.90;;;21.00;99.90;;;;;;4946877;28;20041;-69
2023/06/16 08:12:36;;;;;;;1999.90;999.90;;;21.10;99.90;;;;;;4950319;28;20028;-68
2023/06/16 08:15:03;;;;;;;1999.90;999.90;;;21.10;99.90;;;;;;4950031;28;20098;-69
2023/06/16 08:17:29;;;;;;;1999.90;999.90;;;21.00;99.90;;;;;;4949828;28;20028;-76
2023/06/16 08:19:55;;;;;;;1999.90;999.90;;;21.20;99.90;;;;;;4949876;28;20062;-69
2023/06/16 08:22:21;;;;;;;1999.90;999.90;;;21.20;99.90;;;;;;4950196;28;20540;-69
2023/06/16 08:24:47;;;;;;;1999.90;999.90;;;21.60;99.90;;;;;;4949191;28;20059;-70
2023/06/16 08:27:12;;;;;;;1999.90;999.90;;;21.90;99.90;;;;;;4950806;28;20074;-69
2023/06/16 08:29:39;;;;;;;1999.90;999.90;;;21.60;99.90;;;;;;4946173;28;20117;-69
2023/06/16 08:32:06;;;;;;;1999.90;999.90;;;22.70;99.90;;;;;;4933330;28;20035;-69
2023/06/16 08:34:33;;;;;;;1999.90;999.90;;;22.80;99.90;;;;;;4949729;28;20036;-69
2023/06/16 08:37:00;;;;;;;1999.90;999.90;;;23.50;99.90;;;;;;4949985;28;20031;-69
2023/06/16 08:39:26;;;;;;;1999.90;999.90;;;22.50;99.90;;;;;;4953812;28;20069;-69
2023/06/16 08:41:52;;;;;;;1999.90;999.90;;;22.20;99.90;;;;;;4953395;28;20494;-70
2023/06/16 08:44:20;;;;;;;1999.90;999.90;;;21.70;99.90;;;;;;4950924;28;20019;-75
2023/06/16 08:46:46;;;;;;;1999.90;999.90;;;21.30;99.90;;;;;;4965902;28;20113;-69
2023/06/16 08:49:14;;;;;;;1999.90;999.90;;;21.20;99.90;;;;;;4969387;28;20141;-76
2023/06/16 08:51:52;;;;;;;1999.90;999.90;;;21.40;99.90;;;;;;4970205;28;20354;-70
2023/06/16 08:54:25;;;;;;;1999.90;999.90;;;21.20;99.90;;;;;;4969264;28;20020;-77
2023/06/16 08:56:51;;;;;;;1999.90;999.90;;;21.60;99.90;;;;;;4955925;28;20066;-77
2023/06/16 08:59:18;;;;;;;1999.90;999.90;;;21.40;99.90;;;;;;4965427;28;20405;-69
2023/06/16 09:01:46;;;;;;;1999.90;999.90;;;21.20;99.90;;;;;;4959791;28;20405;-69
2023/06/16 09:04:15;;;;;;;1999.90;999.90;;;21.30;99.90;;;;;;4953600;28;20019;-71
2023/06/16 09:06:48;;;;;;;1999.90;999.90;;;21.40;99.90;;;;;;4958999;28;20077;-70
2023/06/16 09:09:14;;;;;;;1999.90;999.90;;;21.20;99.90;;;;;;4947322;28;20024;-70
2023/06/16 09:11:41;;;;;;;1999.90;999.90;;;21.20;99.90;;;;;;4956626;28;20031;-73
2023/06/16 09:14:14;;;;;;;1999.90;999.90;;;21.10;99.90;;;;;;4956856;28;20114;-70
2023/06/16 09:16:40;;;;;;;1999.90;999.90;;;21.30;99.90;;;;;;4949282;28;20035;-70
2023/06/16 09:19:10;;;;;;;1999.90;999.90;;;21.50;99.90;;;;;;4954438;28;20028;-70
2023/06/16 09:21:37;;;;;;;1999.90;999.90;;;21.80;99.90;;;;;;4953875;28;20644;-69
2023/06/16 09:24:04;;;;;;;1999.90;999.90;;;22.00;99.90;;;;;;4953961;28;20039;-70
2023/06/16 09:26:39;;;;;;;1999.90;999.90;;;22.00;99.90;;;;;;4958194;28;20569;-71
2023/06/16 09:29:22;;;;;;;1999.90;999.90;;;22.80;99.90;;;;;;4957138;28;20031;-70
2023/06/16 09:31:48;;;;;;;1999.90;999.90;;;23.30;99.90;;;;;;4959736;28;20110;-71
2023/06/16 09:34:14;;;;;;;1999.90;999.90;;;23.10;99.90;;;;;;4960331;28;20033;-71
2023/06/16 09:36:39;;;;;;;1999.90;999.90;;;23.10;99.90;;;;;;4973120;28;20110;-71
2023/06/16 09:39:07;;;;;;;1999.90;999.90;;;22.60;99.90;;;;;;4966308;28;20406;-71
2023/06/16 09:41:36;;;;;;;1999.90;999.90;;;22.10;99.90;;;;;;4943167;29;20043;-70
2023/06/16 09:44:02;;;;;;;1999.90;999.90;;;22.10;99.90;;;;;;4956234;28;20078;-70
2023/06/16 09:46:29;;;;;;;1999.90;999.90;;;21.80;99.90;;;;;;4969321;28;20058;-71
2023/06/16 09:48:54;;;;;;;1999.90;999.90;;;21.50;99.90;;;;;;4953095;28;20151;-73
2023/06/16 09:51:22;;;;;;;1999.90;999.90;;;21.80;99.90;;;;;;4962917;28;20031;-70
2023/06/16 09:53:49;;;;;;;1999.90;999.90;;;22.20;99.90;;;;;;4962695;28;20027;-70
2023/06/16 09:56:16;;;;;;;1999.90;999.90;;;24.70;99.90;;;;;;4953327;28;20405;-71
2023/06/16 09:58:43;;;;;;;1999.90;999.90;;;25.20;99.90;;;;;;4968466;28;20049;-71
2023/06/16 10:01:10;;;;;;;1999.90;999.90;;;24.40;99.90;;;;;;4964204;28;20490;-71
2023/06/16 10:03:43;;;;;;;1999.90;999.90;;;23.60;99.90;;;;;;4951490;28;20110;-71
2023/06/16 10:06:16;;;;;;;1999.90;999.90;;;23.10;99.90;;;;;;4952353;28;20054;-70
2023/06/16 10:08:42;;;;;;;;;;;23.00;99.90;;;;;;4952598;28;20102;-70
2023/06/16 10:11:11;;;;;;;1999.90;999.90;;;23.00;99.90;;;;;;4952658;28;20017;-70
2023/06/16 10:13:39;;;;;;;1999.90;999.90;;;22.70;99.90;;;;;;4953977;28;20454;-73
2023/06/16 10:16:09;;;;;;;1999.90;999.90;;;22.30;99.90;;;;;;4952649;28;20433;-73
2023/06/16 10:18:36;;;;;;;1999.90;999.90;;;22.50;99.90;;;;;;4947129;28;20086;-70
2023/06/16 10:21:02;;;;;;;1999.90;999.90;;;22.90;99.90;;;;;;4935266;29;20034;-71
2023/06/16 10:23:28;;;;;;;1999.90;999.90;;;23.50;99.90;;;;;;4955277;28;20035;-71
2023/06/16 10:25:54;;;;;;;1999.90;999.90;;;24.90;99.90;;;;;;4957073;28;20114;-73
2023/06/16 10:28:20;;;;;;;1999.90;999.90;;;25.10;99.90;;;;;;4951083;28;20442;-71
2023/06/16 10:30:48;;;;;;;1999.90;999.90;;;25.90;99.90;;;;;;4950566;28;20035;-73
2023/06/16 10:33:19;;;;;;;1999.90;999.90;;;25.60;99.90;;;;;;4953397;28;20027;-72
2023/06/16 10:35:52;;;;;;;1999.90;999.90;;;26.30;99.90;;;;;;4952063;28;20103;-72
2023/06/16 10:38:19;;;;;;;1999.90;999.90;;;27.10;99.90;;;;;;4955369;28;20023;-74
2023/06/16 10:40:45;;;;;;;1999.90;999.90;;;26.30;99.90;;;;;;4954850;28;20023;-74
2023/06/16 10:43:24;;;;;;;1999.90;999.90;;;25.90;99.90;;;;;;4949758;28;20465;-74
2023/06/16 10:45:50;;;;;;;1999.90;999.90;;;26.40;99.90;;;;;;4950725;28;20065;-74
2023/06/16 10:48:15;;;;;;;1999.90;999.90;;;28.10;99.90;;;;;;4950870;28;20522;-72
2023/06/16 10:50:42;;;;;;;1999.90;999.90;;;28.30;99.90;;;;;;4950804;28;20047;-72
2023/06/16 10:53:15;;;;;;;1999.90;999.90;;;29.60;99.90;;;;;;4951965;28;20082;-74
2023/06/16 10:55:42;;;;;;;1999.90;999.90;;;28.10;99.90;;;;;;4951044;29;20106;-74
2023/06/16 10:58:14;;;;;;;1999.90;999.90;;;26.90;99.90;;;;;;4951491;28;20031;-72
2023/06/16 11:01:02;;;;;;;1999.90;999.90;;;26.90;99.90;;;;;;4949198;29;20520;-72
2023/06/16 11:03:34;;;;;;;1999.90;999.90;;;28.30;99.90;;;;;;4952953;28;20027;-73
2023/06/16 11:06:01;;;;;;;1999.90;999.90;;;28.50;99.90;;;;;;4953179;28;20085;-74
2023/06/16 11:08:28;;;;;;;1999.90;999.90;;;29.00;99.90;;;;;;4953358;28;20553;-74
2023/06/16 11:11:01;;;;;;;1999.90;999.90;;;27.90;99.90;;;;;;4951837;28;20141;-72
2023/06/16 11:13:29;;;;;;;1999.90;999.90;;;28.60;99.90;;;;;;4955964;28;20110;-75
2023/06/16 11:15:56;;;;;;;1999.90;999.90;;;29.40;99.90;;;;;;4954265;28;20037;-73
2023/06/16 11:18:26;;;;;;;1999.90;999.90;;;28.50;99.90;;;;;;4953012;28;20482;-73
2023/06/16 11:20:56;;;;;;;1999.90;999.90;;;29.00;99.90;;;;;;4953050;28;20107;-72
2023/06/16 11:23:22;;;;;;;1999.90;999.90;;;29.80;99.90;;;;;;4957069;28;20520;-72
2023/06/16 11:25:50;;;;;;;1999.90;999.90;;;30.40;99.90;;;;;;4952909;29;20039;-75
2023/06/16 11:28:21;;;;;;;1999.90;999.90;;;29.70;99.90;;;;;;4954600;28;20039;-72
2023/06/16 11:30:47;;;;;;;1999.90;999.90;;;29.40;99.90;;;;;;4945693;29;20038;-77
2023/06/16 11:33:16;;;;;;;1999.90;999.90;;;27.50;99.90;;;;;;4953368;28;20031;-76
2023/06/16 11:35:42;;;;;;;1999.90;999.90;;;26.30;99.90;;;;;;4952357;29;20039;-73
2023/06/16 11:38:08;;;;;;;1999.90;999.90;;;26.30;99.90;;;;;;4953645;28;20027;-75
2023/06/16 11:40:35;;;;;;;1999.90;999.90;;;27.10;99.90;;;;;;4955879;28;20390;-72
2023/06/16 11:43:01;;;;;;;1999.90;999.90;;;27.20;99.90;;;;;;4950294;28;20691;-75
2023/06/16 11:45:32;;;;;;;1999.90;999.90;;;27.70;99.90;;;;;;4951883;28;20027;-74
2023/06/16 11:48:01;;;;;;;1999.90;999.90;;;28.40;99.90;;;;;;4952593;28;20130;-74
2023/06/16 11:50:27;;;;;;;1999.90;999.90;;;28.40;99.90;;;;;;4949957;28;20066;-73
2023/06/16 11:52:53;;;;;;;1999.90;999.90;;;29.20;99.90;;;;;;4953697;28;20492;-72
2023/06/16 11:55:20;;;;;;;1999.90;999.90;;;28.60;99.90;;;;;;4934761;28;20401;-72
2023/06/16 11:57:46;;;;;;;1999.90;999.90;;;27.30;99.90;;;;;;4950932;28;20537;-76
2023/06/16 12:00:13;;;;;;;1999.90;999.90;;;27.70;99.90;;;;;;4928578;29;20032;-71